Time;durP1;ratioP1;P1;durP2;ratioP2;P2;SDS_P1;SDS_P2;PMS_P1;PMS_P2;Temp;Humidity;BMP_temperature;BMP_pressure;BME280_temperature;BME280_humidity;BME280_pressure;Samples;Min_cycle;Max_cycle;Signal;HPM_P1;HPM_P2
2022/10/29 00:02:20;;;;;;;18.67;7.55;;;;;;;20.45;79.60;101457.38;5011484;28;20061;-64
2022/10/29 00:04:47;;;;;;;20.48;7.40;;;;;;;20.56;80.62;101456.47;4997022;28;20061;-63
2022/10/29 00:07:14;;;;;;;19.42;7.93;;;;;;;20.61;80.35;101455.38;4979373;28;20053;-64
2022/10/29 00:09:42;;;;;;;18.52;8.45;;;;;;;20.54;79.62;101449.63;4980277;28;20062;-63
2022/10/29 00:12:09;;;;;;;19.08;7.60;;;;;;;20.74;80.26;101442.91;4997755;28;20054;-63
2022/10/29 00:14:36;;;;;;;17.52;7.25;;;;;;;20.73;80.06;101436.47;4996314;28;20065;-63
2022/10/29 00:17:03;;;;;;;18.58;8.57;;;;;;;20.55;79.83;101428.84;5000908;28;20600;-64
2022/10/29 00:19:31;;;;;;;20.35;7.57;;;;;;;20.62;79.73;101417.81;5009588;28;20054;-64
2022/10/29 00:21:58;;;;;;;23.80;8.15;;;;;;;20.59;79.80;101410.16;4985275;28;20049;-64
2022/10/29 00:24:25;;;;;;;23.73;8.38;;;;;;;20.43;79.02;101418.56;5017632;28;20053;-63
2022/10/29 00:26:53;;;;;;;20.70;7.95;;;;;;;20.49;79.82;101413.47;5013627;28;20073;-64
2022/10/29 00:29:20;;;;;;;19.08;7.80;;;;;;;20.61;79.79;101417.00;4998954;28;20054;-64
2022/10/29 00:31:49;;;;;;;20.20;7.85;;;;;;;20.67;79.12;101411.94;4998714;28;20051;-64
2022/10/29 00:34:16;;;;;;;17.38;7.78;;;;;;;20.62;79.66;101423.41;4985347;28;20057;-64
2022/10/29 00:36:43;;;;;;;14.10;7.25;;;;;;;20.68;79.55;101414.34;5000873;28;20060;-64
2022/10/29 00:39:15;;;;;;;17.98;8.63;;;;;;;20.75;78.76;101406.13;5002301;28;20050;-63
2022/10/29 00:41:42;;;;;;;16.63;7.93;;;;;;;20.69;79.00;101398.38;5014408;28;20500;-63
2022/10/29 00:44:21;;;;;;;16.73;7.80;;;;;;;20.82;78.85;101400.69;5015574;28;20069;-64
2022/10/29 00:46:55;;;;;;;23.33;8.60;;;;;;;20.71;78.29;101404.44;4995783;28;20612;-64
2022/10/29 00:49:24;;;;;;;16.17;8.43;;;;;;;20.74;78.97;101400.91;4980467;28;20050;-63
2022/10/29 00:51:51;;;;;;;22.95;8.10;;;;;;;20.77;78.81;101381.38;4993932;28;20553;-63
2022/10/29 00:54:18;;;;;;;23.75;8.00;;;;;;;20.46;78.92;101381.47;4979983;28;20058;-64
2022/10/29 00:56:59;;;;;;;18.55;8.27;;;;;;;20.49;78.30;101391.91;5009284;28;20508;-64
2022/10/29 00:59:26;;;;;;;15.27;7.45;;;;;;;20.52;80.00;101390.38;4993936;28;20061;-64
2022/10/29 01:01:54;;;;;;;23.88;9.18;;;;;;;20.49;79.24;101383.53;4978334;28;20540;-64
2022/10/29 01:04:23;;;;;;;19.63;8.43;;;;;;;20.58;79.68;101358.13;4979469;28;20073;-64
2022/10/29 01:06:51;;;;;;;21.88;7.88;;;;;;;20.77;78.81;101352.56;4994350;28;20051;-64
2022/10/29 01:09:18;;;;;;;18.48;8.10;;;;;;;20.81;78.53;101348.66;4978275;28;20046;-63
2022/10/29 01:11:58;;;;;;;19.75;8.27;;;;;;;20.70;79.30;101352.41;4966777;28;20053;-65
2022/10/29 01:14:31;;;;;;;17.00;7.90;;;;;;;20.72;79.33;101350.03;4983810;28;20050;-63
2022/10/29 01:17:10;;;;;;;22.70;7.68;;;;;;;20.61;78.41;101349.81;4991168;28;20046;-63
2022/10/29 01:20:11;;;;;;;20.73;7.80;;;;;;;20.64;79.38;101348.28;4995900;28;20054;-66
2022/10/29 01:22:43;;;;;;;18.33;7.38;;;;;;;20.58;79.60;101342.16;5007115;28;20054;-64
2022/10/29 01:25:31;;;;;;;21.50;8.18;;;;;;;20.68;78.55;101343.53;4990591;28;20053;-63
2022/10/29 01:28:06;;;;;;;20.92;7.38;;;;;;;20.51;79.64;101344.78;4990372;28;20050;-62
2022/10/29 01:30:57;;;;;;;16.02;7.80;;;;;;;20.52;79.08;101342.81;5003812;28;20054;-63
2022/10/29 01:33:36;;;;;;;19.35;8.13;;;;;;;20.45;79.33;101343.44;4972284;28;20058;-64
2022/10/29 01:36:09;;;;;;;18.05;7.75;;;;;;;20.21;80.14;101343.66;5009031;28;20058;-63
2022/10/29 01:38:46;;;;;;;17.15;7.63;;;;;;;20.40;80.64;101332.53;4988860;28;20058;-63
2022/10/29 01:41:19;;;;;;;18.63;7.40;;;;;;;20.58;78.80;101328.16;4989339;28;20053;-63
2022/10/29 01:44:00;;;;;;;20.52;7.57;;;;;;;20.56;79.72;101338.06;4979005;28;20062;-63
2022/10/29 01:46:38;;;;;;;25.08;8.40;;;;;;;20.49;79.60;101313.56;5008470;28;20080;-63
2022/10/29 01:49:11;;;;;;;17.92;8.25;;;;;;;20.44;79.75;101308.25;4999448;28;20046;-64
2022/10/29 01:51:39;;;;;;;18.15;7.53;;;;;;;20.32;79.99;101307.53;4985979;28;20061;-64
2022/10/29 01:54:08;;;;;;;19.90;7.90;;;;;;;20.38;79.90;101286.50;5011359;28;20358;-63
2022/10/29 01:56:36;;;;;;;17.37;7.23;;;;;;;20.48;79.94;101294.31;4976368;28;20073;-64
2022/10/29 01:59:06;;;;;;;19.80;7.45;;;;;;;20.24;79.62;101298.19;4996527;28;20293;-63
2022/10/29 02:01:54;;;;;;;19.60;8.27;;;;;;;20.00;79.83;101295.56;5000687;28;20050;-64
2022/10/29 02:04:52;;;;;;;14.20;7.20;;;;;;;20.12;81.45;101270.28;4977794;28;20058;-68
2022/10/29 02:07:34;;;;;;;19.17;7.70;;;;;;;20.04;80.30;101274.09;5006829;28;20042;-64
2022/10/29 02:10:23;;;;;;;17.27;8.18;;;;;;;19.71;81.40;101268.91;4980262;28;20062;-64
2022/10/29 02:12:52;;;;;;;22.57;7.97;;;;;;;19.87;81.31;101264.13;4995078;28;20050;-65
2022/10/29 02:15:28;;;;;;;17.63;7.72;;;;;;;20.11;80.94;101254.69;4978405;28;20058;-63
2022/10/29 02:18:00;;;;;;;17.27;7.45;;;;;;;19.97;81.56;101251.56;4978498;28;20050;-63
2022/10/29 02:20:28;;;;;;;16.13;6.95;;;;;;;20.16;80.93;101260.03;5010716;28;20054;-66
2022/10/29 02:22:56;;;;;;;15.85;6.95;;;;;;;20.39;79.94;101260.97;4997176;28;20050;-64
2022/10/29 02:25:23;;;;;;;22.33;7.47;;;;;;;20.42;78.03;101267.78;4960924;28;20122;-64
2022/10/29 02:27:51;;;;;;;18.95;7.25;;;;;;;20.23;78.69;101262.16;4994853;28;20050;-64
2022/10/29 02:30:18;;;;;;;22.95;7.85;;;;;;;20.13;77.90;101250.38;5002218;28;20058;-64
2022/10/29 02:32:45;;;;;;;15.98;6.70;;;;;;;20.29;79.11;101244.75;4996142;28;20524;-64
2022/10/29 02:35:13;;;;;;;16.23;7.00;;;;;;;20.24;78.95;101249.81;4985870;28;20408;-64
2022/10/29 02:37:40;;;;;;;17.13;7.45;;;;;;;20.19;78.61;101247.31;5005672;28;20072;-64
2022/10/29 02:40:08;;;;;;;16.08;7.05;;;;;;;20.23;78.56;101237.81;4993707;28;20477;-64
2022/10/29 02:42:35;;;;;;;17.15;7.55;;;;;;;20.21;79.08;101242.94;4962073;28;20054;-64
2022/10/29 02:45:03;;;;;;;21.58;7.68;;;;;;;19.98;79.62;101237.19;5008329;28;20061;-64
2022/10/29 02:47:30;;;;;;;15.45;7.22;;;;;;;20.07;79.81;101235.03;4993631;28;20062;-64
2022/10/29 02:49:57;;;;;;;14.63;7.15;;;;;;;20.05;79.67;101234.56;4961563;28;20046;-64
2022/10/29 02:52:25;;;;;;;14.43;6.65;;;;;;;20.25;79.07;101243.03;4993289;28;20050;-63
2022/10/29 02:54:52;;;;;;;23.58;7.32;;;;;;;20.26;78.59;101242.66;5010933;28;20058;-63
2022/10/29 02:57:20;;;;;;;17.05;6.65;;;;;;;20.34;78.39;101226.84;4976937;28;20065;-64
2022/10/29 02:59:47;;;;;;;18.23;7.43;;;;;;;20.37;78.75;101229.72;4994676;28;20053;-63
2022/10/29 03:02:14;;;;;;;14.50;6.70;;;;;;;20.37;78.20;101223.31;4978206;28;20054;-64
2022/10/29 03:04:43;;;;;;;17.83;6.20;;;;;;;20.35;77.68;101215.28;4992690;28;20058;-63
2022/10/29 03:07:10;;;;;;;19.17;7.20;;;;;;;20.35;78.49;101211.66;4998241;28;20425;-64
2022/10/29 03:09:37;;;;;;;14.68;7.28;;;;;;;20.40;77.84;101212.19;4993585;28;20065;-63
2022/10/29 03:12:05;;;;;;;18.02;6.50;;;;;;;20.43;77.62;101205.88;4997889;28;20050;-63
2022/10/29 03:14:32;;;;;;;20.10;6.80;;;;;;;20.34;76.51;101204.47;5006243;28;20050;-64
2022/10/29 03:16:59;;;;;;;17.80;5.93;;;;;;;20.33;77.85;101202.84;4980459;28;20061;-63
2022/10/29 03:19:27;;;;;;;18.00;6.93;;;;;;;20.33;78.32;101209.25;5008733;28;20038;-63
2022/10/29 03:21:54;;;;;;;14.48;7.20;;;;;;;20.37;77.99;101210.13;5000804;28;20058;-63
2022/10/29 03:24:21;;;;;;;23.08;7.97;;;;;;;20.38;77.54;101211.75;4977459;28;20054;-63
2022/10/29 03:26:48;;;;;;;20.70;7.22;;;;;;;20.36;76.74;101199.31;4992703;28;20054;-64
2022/10/29 03:29:16;;;;;;;24.75;7.70;;;;;;;20.26;76.96;101206.28;4995332;28;20043;-64
2022/10/29 03:31:43;;;;;;;17.42;7.13;;;;;;;20.30;77.30;101209.16;5000396;28;20070;-63
2022/10/29 03:34:10;;;;;;;16.50;6.57;;;;;;;20.25;77.63;101220.66;4981882;28;20058;-64
2022/10/29 03:36:37;;;;;;;19.42;6.90;;;;;;;20.13;76.78;101213.19;4981872;28;20050;-64
2022/10/29 03:39:05;;;;;;;25.50;8.07;;;;;;;20.01;77.68;101216.88;4998030;28;20058;-64
2022/10/29 03:41:32;;;;;;;18.83;6.88;;;;;;;20.15;78.64;101224.81;4980939;28;20135;-64
2022/10/29 03:43:59;;;;;;;18.23;7.25;;;;;;;20.46;79.12;101218.31;4996729;28;20050;-64
2022/10/29 03:46:26;;;;;;;25.58;7.78;;;;;;;20.41;76.99;101194.25;4978939;28;20059;-65
2022/10/29 03:48:54;;;;;;;14.45;6.38;;;;;;;20.25;77.22;101210.28;4998537;28;20061;-64
2022/10/29 03:51:21;;;;;;;19.05;7.45;;;;;;;20.28;77.46;101209.53;5011993;28;20407;-63
2022/10/29 03:53:48;;;;;;;14.80;7.03;;;;;;;20.19;78.36;101213.75;5015981;28;20048;-63
2022/10/29 03:56:15;;;;;;;19.52;7.00;;;;;;;20.09;78.16;101179.53;5012916;28;20038;-64
2022/10/29 03:58:43;;;;;;;12.48;6.80;;;;;;;19.85;77.08;101182.59;4981359;28;20054;-64
2022/10/29 04:01:10;;;;;;;22.55;7.50;;;;;;;19.94;78.63;101187.97;5000495;28;20058;-63
2022/10/29 04:03:40;;;;;;;19.67;7.47;;;;;;;20.07;78.83;101195.03;4997649;28;20053;-64
2022/10/29 04:06:13;;;;;;;20.02;7.03;;;;;;;20.22;78.11;101205.44;4997813;28;20054;-65
2022/10/29 04:08:41;;;;;;;16.10;6.85;;;;;;;20.23;77.55;101214.59;5009261;28;20057;-64
2022/10/29 04:11:12;;;;;;;17.90;6.95;;;;;;;20.41;77.31;101215.81;5000774;28;20046;-64
2022/10/29 04:13:39;;;;;;;17.75;7.78;;;;;;;20.38;77.61;101211.75;4998352;28;20057;-64
2022/10/29 04:16:07;;;;;;;12.05;5.93;;;;;;;20.31;77.71;101214.38;4996712;28;20054;-64
2022/10/29 04:18:34;;;;;;;15.13;6.63;;;;;;;20.25;77.02;101210.28;4995497;28;20073;-64
2022/10/29 04:21:01;;;;;;;18.63;6.63;;;;;;;20.22;77.74;101221.38;5004981;28;20520;-64
2022/10/29 04:23:49;;;;;;;14.02;6.55;;;;;;;20.11;76.71;101224.75;5001313;28;20527;-64
2022/10/29 04:26:36;;;;;;;17.85;7.28;;;;;;;20.22;77.24;101215.78;5006629;28;20416;-64
2022/10/29 04:29:23;;;;;;;18.70;7.35;;;;;;;20.05;76.80;101208.59;4978037;28;20055;-64
2022/10/29 04:31:51;;;;;;;17.40;6.70;;;;;;;20.17;76.56;101202.91;4998571;28;20069;-64
2022/10/29 04:34:18;;;;;;;18.77;6.78;;;;;;;20.25;77.55;101195.47;5016125;28;20061;-64
2022/10/29 04:36:45;;;;;;;21.73;6.90;;;;;;;20.10;77.33;101194.34;4988521;28;20460;-63
2022/10/29 04:39:13;;;;;;;17.25;6.78;;;;;;;20.06;76.57;101177.47;4999948;28;20046;-63
2022/10/29 04:41:43;;;;;;;;;;;;;;;20.04;76.17;101198.59;5003135;28;20065;-63
2022/10/29 04:44:10;;;;;;;18.05;6.50;;;;;;;20.17;77.57;101204.91;5011938;28;19929;-63
2022/10/29 04:46:37;;;;;;;19.48;6.75;;;;;;;20.35;76.90;101195.69;5010990;28;20505;-64
2022/10/29 04:49:04;;;;;;;14.27;6.40;;;;;;;20.30;76.58;101186.78;4995828;28;20042;-63
2022/10/29 04:51:32;;;;;;;21.02;6.43;;;;;;;20.22;77.29;101191.44;4972101;28;20058;-64
2022/10/29 04:53:59;;;;;;;16.05;6.22;;;;;;;20.26;77.12;101185.91;5007676;28;20056;-65
2022/10/29 04:56:28;;;;;;;15.32;6.22;;;;;;;20.28;77.00;101184.34;4988436;28;20078;-65
2022/10/29 04:58:56;;;;;;;16.13;7.00;;;;;;;20.34;76.37;101184.88;4995423;28;20504;-63
2022/10/29 05:01:23;;;;;;;24.98;6.78;;;;;;;20.31;76.01;101180.03;4998057;28;20042;-64
2022/10/29 05:03:50;;;;;;;16.73;6.22;;;;;;;20.41;75.62;101183.06;4997562;28;20432;-64
2022/10/29 05:06:25;;;;;;;18.73;7.07;;;;;;;20.41;75.35;101179.44;5001443;28;20058;-65
2022/10/29 05:08:52;;;;;;;15.18;6.20;;;;;;;20.36;76.01;101174.13;4998671;28;20429;-64
2022/10/29 05:11:19;;;;;;;21.77;7.03;;;;;;;20.41;76.08;101176.63;5000776;28;20055;-64
2022/10/29 05:13:46;;;;;;;14.63;6.25;;;;;;;20.36;75.88;101171.34;5009242;28;20050;-64
2022/10/29 05:16:13;;;;;;;21.90;7.13;;;;;;;20.39;75.51;101170.59;5009524;28;20117;-64
2022/10/29 05:18:41;;;;;;;16.92;6.13;;;;;;;20.35;75.44;101162.13;5016551;28;20050;-64
2022/10/29 05:21:08;;;;;;;16.55;6.88;;;;;;;20.32;75.38;101170.44;4984836;28;20058;-65
2022/10/29 05:23:35;;;;;;;15.68;6.68;;;;;;;20.22;75.72;101173.84;4995643;28;20042;-65
2022/10/29 05:26:02;;;;;;;12.30;5.68;;;;;;;20.23;76.47;101173.47;4985685;28;20058;-65
2022/10/29 05:28:30;;;;;;;18.67;6.40;;;;;;;20.33;76.71;101167.28;4990452;28;20516;-64
2022/10/29 05:30:59;;;;;;;21.95;7.38;;;;;;;20.27;75.90;101156.75;4998848;28;20054;-64
2022/10/29 05:33:27;;;;;;;19.60;6.47;;;;;;;20.23;76.33;101153.06;4996872;28;20135;-64
2022/10/29 05:35:54;;;;;;;18.33;6.72;;;;;;;20.19;76.41;101150.19;4994178;28;20050;-64
2022/10/29 05:38:21;;;;;;;20.80;7.00;;;;;;;20.19;76.01;101139.00;5004884;28;20053;-64
2022/10/29 05:40:49;;;;;;;20.38;7.45;;;;;;;20.17;76.15;101134.97;5009072;28;20053;-65
2022/10/29 05:43:16;;;;;;;17.38;6.32;;;;;;;20.14;75.74;101131.69;4979319;28;20054;-64
2022/10/29 05:45:44;;;;;;;17.38;6.20;;;;;;;19.97;76.99;101139.69;4979634;28;20053;-64
2022/10/29 05:48:11;;;;;;;17.23;6.22;;;;;;;19.98;76.33;101146.91;4996043;28;20726;-63
2022/10/29 05:50:43;;;;;;;15.90;6.50;;;;;;;19.94;75.54;101141.25;5008496;28;20042;-65
2022/10/29 05:53:12;;;;;;;18.05;6.53;;;;;;;19.90;77.59;101134.78;4965848;28;20398;-65
2022/10/29 05:55:40;;;;;;;13.50;6.50;;;;;;;20.11;76.76;101138.03;4985460;28;20066;-65
2022/10/29 05:58:12;;;;;;;16.67;6.30;;;;;;;19.94;76.78;101140.44;4959618;28;20046;-64
2022/10/29 06:00:43;;;;;;;15.82;6.35;;;;;;;19.94;77.49;101138.47;4981402;28;20069;-64
2022/10/29 06:03:19;;;;;;;13.57;6.13;;;;;;;20.11;76.60;101135.22;4982128;28;20417;-65
2022/10/29 06:05:47;;;;;;;14.75;6.43;;;;;;;20.09;76.16;101131.16;4988981;28;20617;-64
2022/10/29 06:08:15;;;;;;;17.38;6.20;;;;;;;20.10;76.58;101128.00;4978943;28;20465;-65
2022/10/29 06:10:43;;;;;;;20.20;6.38;;;;;;;20.26;75.62;101129.97;4958860;28;20046;-64
2022/10/29 06:13:11;;;;;;;16.00;6.47;;;;;;;20.24;75.80;101127.53;4959865;28;20054;-64
2022/10/29 06:15:38;;;;;;;16.92;6.38;;;;;;;20.22;75.67;101126.28;4962757;28;20066;-64
2022/10/29 06:18:05;;;;;;;21.50;6.55;;;;;;;20.34;75.31;101112.94;4974496;28;20049;-64
2022/10/29 06:20:33;;;;;;;15.25;6.57;;;;;;;20.31;75.40;101116.47;4975851;28;20058;-65
2022/10/29 06:23:00;;;;;;;16.25;6.47;;;;;;;20.34;75.28;101126.94;4977801;28;20080;-64
2022/10/29 06:25:27;;;;;;;16.42;6.05;;;;;;;20.32;74.97;101128.47;4987631;28;20058;-65
2022/10/29 06:28:01;;;;;;;20.42;7.10;;;;;;;20.11;75.46;101128.81;4980245;28;20046;-64
2022/10/29 06:30:30;;;;;;;14.05;6.32;;;;;;;20.22;75.98;101134.66;4973873;28;20046;-65
2022/10/29 06:32:58;;;;;;;17.08;6.25;;;;;;;20.41;74.94;101151.44;4986279;28;20520;-64
2022/10/29 06:35:26;;;;;;;17.13;6.00;;;;;;;20.49;74.61;101165.22;4993208;28;20046;-64
2022/10/29 06:37:54;;;;;;;15.27;5.80;;;;;;;20.44;74.54;101159.09;4974971;28;20054;-65
2022/10/29 06:40:22;;;;;;;19.08;5.85;;;;;;;20.37;74.90;101150.56;4957783;28;20051;-65
2022/10/29 06:42:57;;;;;;;16.65;5.85;;;;;;;20.39;74.91;101134.22;4973404;28;20042;-65
2022/10/29 06:45:27;;;;;;;21.80;6.07;;;;;;;20.29;77.00;101151.59;4970670;28;20058;-64
2022/10/29 06:47:55;;;;;;;19.73;7.38;;;;;;;20.32;74.44;101154.47;4975745;28;20644;-65
2022/10/29 06:50:23;;;;;;;15.07;7.18;;;;;;;20.11;73.94;101159.59;4959136;28;20074;-64
2022/10/29 06:52:58;;;;;;;30.15;9.18;;;;;;;19.96;72.22;101158.44;4987706;28;20047;-63
2022/10/29 06:55:26;;;;;;;20.88;8.10;;;;;;;19.43;71.87;101156.41;4992296;28;20053;-64
2022/10/29 06:58:11;;;;;;;22.50;7.95;;;;;;;19.38;72.65;101153.91;4994967;28;20050;-62
2022/10/29 07:00:40;;;;;;;25.73;9.48;;;;;;;19.44;72.25;101144.06;4991464;28;20038;-63
2022/10/29 07:03:15;;;;;;;29.77;12.65;;;;;;;19.19;73.08;101136.22;4959109;28;20050;-64
2022/10/29 07:05:42;;;;;;;18.48;7.53;;;;;;;19.14;77.15;101137.31;5006843;28;20066;-63
2022/10/29 07:08:10;;;;;;;24.50;7.88;;;;;;;19.11;78.09;101129.63;4966522;28;20065;-64
2022/10/29 07:10:37;;;;;;;22.45;8.82;;;;;;;19.34;78.06;101136.25;5006523;28;20062;-62
2022/10/29 07:13:05;;;;;;;20.80;9.50;;;;;;;19.43;77.71;101145.25;4997381;28;20054;-65
2022/10/29 07:15:32;;;;;;;27.67;10.68;;;;;;;19.38;74.52;101133.53;4996185;28;20047;-67
2022/10/29 07:18:02;;;;;;;19.45;7.85;;;;;;;19.69;78.21;101131.50;4994327;28;20046;-68
2022/10/29 07:20:31;;;;;;;30.45;11.50;;;;;;;19.23;74.72;101131.53;4994629;28;20049;-70
2022/10/29 07:23:00;;;;;;;22.48;9.80;;;;;;;19.41;77.19;101132.78;4993854;28;20053;-71
2022/10/29 07:25:28;;;;;;;38.75;18.42;;;;;;;19.28;75.35;101136.84;4998622;28;20070;-67
2022/10/29 07:28:02;;;;;;;26.02;11.82;;;;;;;19.59;76.94;101128.44;4998271;28;20046;-66
2022/10/29 07:30:30;;;;;;;26.65;10.90;;;;;;;19.67;75.32;101119.88;4997237;28;20062;-66
2022/10/29 07:32:57;;;;;;;30.95;13.05;;;;;;;19.69;75.31;101125.91;4984092;28;20050;-65
2022/10/29 07:35:24;;;;;;;22.85;9.52;;;;;;;19.91;75.18;101128.00;4998353;28;20060;-66
2022/10/29 07:37:51;;;;;;;21.58;7.93;;;;;;;19.67;75.66;101124.63;4998410;28;20057;-66
2022/10/29 07:40:19;;;;;;;28.63;13.27;;;;;;;19.85;74.61;101123.88;4994886;28;20485;-66
2022/10/29 07:42:51;;;;;;;30.73;15.85;;;;;;;19.72;73.31;101116.78;4997746;28;20061;-66
2022/10/29 07:45:18;;;;;;;23.80;9.95;;;;;;;19.38;73.06;101123.19;4994300;28;20065;-69
2022/10/29 07:47:45;;;;;;;22.63;8.77;;;;;;;19.58;75.41;101124.03;4996160;28;20053;-67
2022/10/29 07:50:13;;;;;;;23.48;7.97;;;;;;;19.64;73.83;101119.78;4997031;28;20061;-66
2022/10/29 07:52:40;;;;;;;23.10;7.88;;;;;;;19.80;73.88;101124.16;4989735;28;20050;-64
2022/10/29 07:55:08;;;;;;;25.65;8.15;;;;;;;19.54;72.45;101121.16;4999124;28;20053;-65
2022/10/29 07:57:35;;;;;;;22.20;7.95;;;;;;;19.50;72.93;101125.03;4975060;28;20054;-65
2022/10/29 08:00:02;;;;;;;21.52;8.13;;;;;;;19.39;71.78;101133.16;4978027;28;20053;-64
2022/10/29 08:02:38;;;;;;;21.35;7.95;;;;;;;19.55;72.71;101135.94;4992984;28;20049;-64
2022/10/29 08:05:05;;;;;;;23.27;7.78;;;;;;;19.53;72.24;101146.66;4982695;28;20061;-64
2022/10/29 08:07:33;;;;;;;19.73;7.72;;;;;;;19.76;71.44;101144.81;4979605;28;20054;-70
2022/10/29 08:10:00;;;;;;;17.55;6.90;;;;;;;19.80;70.59;101145.72;4975986;28;20062;-63
2022/10/29 08:12:27;;;;;;;23.90;8.07;;;;;;;19.77;70.94;101147.25;4995494;28;20034;-75
2022/10/29 08:14:55;;;;;;;20.85;7.65;;;;;;;19.79;69.86;101150.47;4995175;28;20054;-63
2022/10/29 08:17:22;;;;;;;21.23;8.25;;;;;;;19.83;70.09;101145.78;4993170;28;20042;-65
2022/10/29 08:19:49;;;;;;;22.70;7.80;;;;;;;19.85;70.34;101154.63;4993406;28;20493;-75
2022/10/29 08:22:16;;;;;;;18.05;7.25;;;;;;;19.90;70.31;101150.72;4996396;28;20058;-73
2022/10/29 08:24:44;;;;;;;23.17;9.63;;;;;;;20.00;69.56;101148.16;4996433;28;20046;-72
2022/10/29 08:27:11;;;;;;;22.05;8.13;;;;;;;19.97;68.90;101154.50;4979498;28;20069;-63
2022/10/29 08:29:38;;;;;;;22.60;7.32;;;;;;;20.13;69.01;101160.84;4979529;28;20069;-64
2022/10/29 08:32:06;;;;;;;24.83;7.00;;;;;;;20.25;67.71;101145.13;4985030;28;20557;-66
2022/10/29 08:34:33;;;;;;;19.98;6.38;;;;;;;20.37;67.88;101162.56;4990954;28;20054;-65
2022/10/29 08:37:01;;;;;;;17.00;6.32;;;;;;;20.09;67.14;101154.38;4994802;28;20053;-65
2022/10/29 08:39:28;;;;;;;20.73;6.70;;;;;;;20.42;67.30;101144.66;4992274;28;20061;-65
2022/10/29 08:42:28;;;;;;;17.27;6.90;;;;;;;20.54;66.25;101148.13;4994507;28;20054;-65
2022/10/29 08:45:24;;;;;;;36.10;21.02;;;;;;;20.51;67.08;101140.47;4996322;28;20050;-64
2022/10/29 08:48:21;;;;;;;24.95;9.60;;;;;;;20.75;67.79;101148.53;4955617;28;20119;-65
2022/10/29 08:51:00;;;;;;;28.27;6.85;;;;;;;20.70;66.92;101134.03;4994400;28;20054;-65
2022/10/29 08:53:38;;;;;;;15.93;5.97;;;;;;;20.83;66.18;101141.91;4985504;28;20481;-67
2022/10/29 08:56:13;;;;;;;26.30;7.00;;;;;;;20.91;65.93;101140.00;4967448;28;20063;-62
2022/10/29 08:59:02;;;;;;;38.65;18.92;;;;;;;20.88;65.68;101136.00;4977338;28;20053;-63
2022/10/29 09:01:30;;;;;;;25.75;7.63;;;;;;;20.74;65.77;101129.31;4959946;28;20038;-62
2022/10/29 09:03:57;;;;;;;21.23;7.47;;;;;;;20.83;66.11;101130.69;4959588;28;20046;-62
2022/10/29 09:06:44;;;;;;;113.60;11.93;;;;;;;20.77;66.16;101136.97;4987043;28;20540;-62
2022/10/29 09:09:32;;;;;;;77.40;12.23;;;;;;;20.86;65.69;101145.94;4963680;28;20065;-62
2022/10/29 09:12:19;;;;;;;33.00;8.60;;;;;;;20.88;65.42;101140.78;4995776;28;20476;-62
2022/10/29 09:15:04;;;;;;;24.00;7.72;;;;;;;21.01;66.00;101150.63;4980139;28;20077;-63
2022/10/29 09:17:38;;;;;;;25.50;7.95;;;;;;;21.14;64.88;101149.28;4997073;28;20053;-62
2022/10/29 09:20:42;;;;;;;20.83;6.82;;;;;;;20.89;65.42;101148.78;4996099;28;20061;-64
2022/10/29 09:23:24;;;;;;;22.00;7.03;;;;;;;20.92;65.64;101144.47;4977990;28;20055;-61
2022/10/29 09:26:02;;;;;;;18.33;6.20;;;;;;;20.82;65.25;101139.44;4959794;28;20046;-63
2022/10/29 09:28:35;;;;;;;25.92;7.05;;;;;;;20.51;66.31;101137.66;4980622;28;20046;-62
2022/10/29 09:31:21;;;;;;;25.48;6.93;;;;;;;20.67;66.21;101140.38;4977517;28;20057;-62
2022/10/29 09:33:50;;;;;;;20.20;6.75;;;;;;;20.64;65.68;101144.72;4994577;28;20046;-62
2022/10/29 09:36:19;;;;;;;18.02;6.80;;;;;;;20.65;66.16;101142.72;4977383;28;20076;-62
2022/10/29 09:38:55;;;;;;;17.13;6.20;;;;;;;20.66;66.31;101150.75;4962046;28;20055;-62
2022/10/29 09:41:25;;;;;;;27.35;6.95;;;;;;;20.49;66.36;101139.22;4977204;28;20057;-62
2022/10/29 09:44:03;;;;;;;21.15;7.03;;;;;;;20.94;66.03;101144.88;4996525;28;20408;-62
2022/10/29 09:46:34;;;;;;;20.05;6.00;;;;;;;20.73;65.59;101148.09;4979780;28;20054;-62
2022/10/29 09:49:02;;;;;;;18.17;6.63;;;;;;;20.80;66.01;101139.03;4996781;28;20054;-63
2022/10/29 09:51:35;;;;;;;23.35;6.30;;;;;;;20.79;65.71;101134.59;4979618;28;20055;-62
2022/10/29 09:54:03;;;;;;;18.08;6.50;;;;;;;20.95;65.52;101124.91;4995078;28;20054;-62
2022/10/29 09:56:30;;;;;;;20.42;6.30;;;;;;;21.00;63.97;101135.00;4996366;28;20532;-62
2022/10/29 09:59:10;;;;;;;20.20;6.57;;;;;;;21.12;64.56;101130.03;4996306;28;20050;-62
2022/10/29 10:01:38;;;;;;;27.02;6.72;;;;;;;21.00;63.87;101124.63;4996017;28;20046;-63
2022/10/29 10:04:14;;;;;;;18.10;5.90;;;;;;;21.10;64.13;101132.41;4997736;28;20058;-62
2022/10/29 10:07:04;;;;;;;14.93;5.43;;;;;;;21.31;63.54;101139.53;4995835;28;20432;-62
2022/10/29 10:09:51;;;;;;;;;;;;;;;21.26;63.39;101132.25;4996847;28;20054;-63
2022/10/29 10:12:21;;;;;;;18.45;7.78;;;;;;;21.55;63.21;101128.72;4995127;28;19929;-62
2022/10/29 10:15:01;;;;;;;24.75;8.95;;;;;;;21.59;62.08;101129.59;4993717;28;20058;-63
2022/10/29 10:17:56;;;;;;;19.15;6.45;;;;;;;21.55;61.44;101120.31;4995936;28;20583;-63
2022/10/29 10:20:40;;;;;;;19.17;6.20;;;;;;;21.47;60.64;101129.00;4995645;28;20061;-65
2022/10/29 10:23:44;;;;;;;22.75;5.85;;;;;;;21.06;61.35;101125.91;4995123;28;20489;-63
2022/10/29 10:26:31;;;;;;;23.77;5.40;;;;;;;21.23;62.39;101127.41;4971163;28;20062;-63
2022/10/29 10:29:20;;;;;;;21.20;5.97;;;;;;;21.24;60.64;101127.03;4996611;28;20441;-62
2022/10/29 10:31:49;;;;;;;19.25;5.82;;;;;;;21.13;61.33;101131.66;4993680;28;20055;-62
2022/10/29 10:34:20;;;;;;;11.77;5.35;;;;;;;21.63;62.41;101121.22;4996142;28;20054;-62
2022/10/29 10:36:51;;;;;;;20.35;5.53;;;;;;;21.70;61.17;101127.75;4988785;28;20062;-62
2022/10/29 10:39:22;;;;;;;21.23;6.80;;;;;;;21.84;60.93;101119.59;5004801;28;20054;-62
2022/10/29 10:41:50;;;;;;;14.55;5.30;;;;;;;21.57;59.87;101115.13;4995391;28;20054;-63
2022/10/29 10:44:18;;;;;;;20.35;5.70;;;;;;;21.79;59.80;101119.09;4995993;28;20054;-62
2022/10/29 10:46:46;;;;;;;19.58;6.25;;;;;;;21.88;60.63;101103.59;4994743;28;20054;-62
2022/10/29 10:49:16;;;;;;;15.88;5.75;;;;;;;21.95;60.06;101108.50;4982735;28;20050;-62
2022/10/29 10:51:53;;;;;;;17.60;5.38;;;;;;;22.09;60.07;101106.69;5001442;28;20053;-63
2022/10/29 10:54:32;;;;;;;20.45;5.88;;;;;;;22.31;59.29;101096.53;5014294;28;20049;-62
2022/10/29 10:57:04;;;;;;;20.48;6.32;;;;;;;22.20;59.33;101085.19;5014477;28;20056;-63
2022/10/29 10:59:59;;;;;;;21.05;6.75;;;;;;;22.34;58.45;101082.53;4997906;28;20057;-63
2022/10/29 11:02:29;;;;;;;22.20;5.55;;;;;;;22.45;58.44;101076.22;5013761;28;20412;-63
2022/10/29 11:05:11;;;;;;;;;;;;;;;22.46;58.45;101069.41;5015818;28;20042;-63
2022/10/29 11:07:41;;;;;;;25.48;6.47;;;;;;;22.28;58.54;101056.00;5013851;28;19928;-64
2022/10/29 11:10:11;;;;;;;22.17;6.18;;;;;;;22.44;57.35;101066.19;5014522;28;20061;-62
2022/10/29 11:12:38;;;;;;;;;;;;;;;22.47;57.76;101068.22;5015657;28;20050;-62
2022/10/29 11:15:20;;;;;;;18.30;6.88;;;;;;;22.66;58.43;101076.47;5015497;28;19921;-63
2022/10/29 11:17:53;;;;;;;22.80;6.85;;;;;;;22.77;57.25;101080.22;5014188;28;20049;-63
2022/10/29 11:20:25;;;;;;;25.45;6.80;;;;;;;22.78;57.20;101082.63;5014730;28;20624;-62
2022/10/29 11:23:07;;;;;;;21.75;5.50;;;;;;;22.75;57.89;101076.97;4997291;28;20536;-62
2022/10/29 11:25:41;;;;;;;23.23;6.28;;;;;;;22.75;57.38;101076.97;5013694;28;20057;-64
2022/10/29 11:28:20;;;;;;;23.33;6.55;;;;;;;22.91;57.01;101075.50;5015628;28;20049;-64
2022/10/29 11:31:01;;;;;;;19.65;5.63;;;;;;;22.54;56.93;101077.56;4996724;28;20049;-62
2022/10/29 11:33:40;;;;;;;25.77;6.05;;;;;;;22.85;57.31;101067.81;4997212;28;20164;-63
2022/10/29 11:36:13;;;;;;;21.38;6.07;;;;;;;23.03;57.16;101055.53;5013530;28;20111;-63
2022/10/29 11:38:51;;;;;;;45.75;12.52;;;;;;;22.92;56.28;101054.66;4998012;28;20046;-62